createdAt,value
2018-03-25T00:00:32.758Z,41.97
2018-03-25T00:03:00.927Z,41.30
2018-03-25T00:05:29.172Z,36.33
2018-03-25T00:07:57.407Z,38.47
2018-03-25T00:10:25.577Z,33.40
2018-03-25T00:12:53.883Z,34.67
2018-03-25T00:15:22.065Z,33.90
2018-03-25T00:17:50.260Z,37.90
2018-03-25T00:20:18.433Z,33.40
2018-03-25T00:22:46.629Z,35.83
2018-03-25T00:25:15.574Z,36.03
2018-03-25T00:27:43.750Z,33.53
2018-03-25T00:30:11.951Z,35.63
2018-03-25T00:32:40.149Z,30.53
2018-03-25T00:35:08.354Z,33.53
2018-03-25T00:37:36.534Z,33.20
2018-03-25T00:40:04.710Z,33.00
2018-03-25T00:42:32.897Z,36.93
2018-03-25T00:45:01.108Z,35.47
2018-03-25T00:47:30.058Z,34.33
2018-03-25T00:49:58.229Z,31.90
2018-03-25T00:52:26.391Z,33.90
2018-03-25T00:54:54.568Z,35.73
2018-03-25T00:57:22.751Z,31.03
2018-03-25T00:59:50.929Z,31.60
2018-03-25T01:02:19.111Z,30.90
2018-03-25T01:04:47.297Z,34.47
2018-03-25T01:07:15.481Z,37.00
2018-03-25T01:09:43.647Z,31.80
2018-03-25T01:12:11.835Z,33.90
2018-03-25T01:14:40.023Z,38.20
2018-03-25T01:17:08.968Z,31.00
2018-03-25T01:19:37.198Z,30.47
2018-03-25T01:22:06.130Z,32.03
2018-03-25T01:24:34.295Z,35.37
2018-03-25T01:27:02.479Z,33.03
2018-03-25T01:29:30.677Z,36.83
2018-03-25T01:31:58.843Z,34.40
2018-03-25T01:34:27.030Z,30.43
2018-03-25T01:36:55.254Z,32.33
2018-03-25T01:39:23.651Z,31.60
2018-03-25T01:41:51.814Z,28.83
2018-03-25T01:44:20.004Z,34.20
2018-03-25T01:46:48.173Z,32.87
2018-03-25T01:49:16.373Z,29.20
2018-03-25T01:51:45.332Z,30.70
2018-03-25T01:54:13.493Z,35.07
2018-03-25T01:56:41.663Z,30.57
2018-03-25T01:59:09.883Z,34.43
2018-03-25T02:01:38.067Z,31.80
2018-03-25T02:04:06.248Z,32.60
2018-03-25T02:06:34.410Z,32.00
2018-03-25T02:09:02.576Z,31.47
2018-03-25T02:11:30.754Z,35.93
2018-03-25T02:13:58.926Z,34.00
2018-03-25T02:16:27.099Z,29.83
2018-03-25T02:18:55.278Z,32.20
2018-03-25T02:21:23.458Z,31.67
2018-03-25T02:23:51.624Z,28.30
2018-03-25T02:26:19.834Z,37.07
2018-03-25T02:28:48.011Z,31.80
2018-03-25T02:31:16.185Z,32.23
2018-03-25T02:33:44.347Z,27.23
2018-03-25T02:36:12.540Z,30.13
2018-03-25T02:38:41.512Z,29.43
2018-03-25T02:41:09.762Z,28.63
2018-03-25T02:43:37.942Z,30.57
2018-03-25T02:46:06.111Z,31.70
2018-03-25T02:48:34.286Z,37.57
2018-03-25T02:51:02.471Z,36.40
2018-03-25T02:53:30.646Z,32.57
2018-03-25T02:55:58.822Z,31.80
2018-03-25T02:58:27.043Z,32.20
2018-03-25T03:00:55.974Z,31.00
2018-03-25T03:03:24.140Z,34.50
2018-03-25T03:05:52.308Z,39.20
2018-03-25T03:08:20.493Z,33.87
2018-03-25T03:10:48.677Z,32.80
2018-03-25T03:13:16.852Z,34.90
2018-03-25T03:15:45.039Z,35.80
2018-03-25T03:18:13.451Z,28.97
2018-03-25T03:20:42.393Z,34.20
2018-03-25T03:23:10.576Z,34.40
2018-03-25T03:25:38.752Z,33.37
2018-03-25T03:28:06.922Z,32.77
2018-03-25T03:30:35.095Z,34.63
2018-03-25T03:33:03.271Z,31.33
2018-03-25T03:35:31.453Z,35.40
2018-03-25T03:37:59.633Z,36.47
2018-03-25T03:40:27.821Z,34.27
2018-03-25T03:42:55.992Z,31.33
2018-03-25T03:45:24.193Z,32.10
2018-03-25T03:47:53.134Z,33.23
2018-03-25T03:50:21.333Z,27.93
2018-03-25T03:52:49.495Z,32.23
2018-03-25T03:55:17.708Z,31.33
2018-03-25T03:57:46.635Z,34.53
2018-03-25T04:00:14.898Z,35.03
2018-03-25T04:02:43.072Z,32.90
2018-03-25T04:05:11.243Z,34.13
2018-03-25T04:07:40.265Z,34.00
2018-03-25T04:10:08.447Z,31.23
2018-03-25T04:12:36.627Z,36.23
2018-03-25T04:15:04.877Z,35.67
2018-03-25T04:17:33.042Z,33.47
2018-03-25T04:20:01.220Z,35.43
2018-03-25T04:22:29.398Z,36.50
2018-03-25T04:24:57.576Z,36.10
2018-03-25T04:27:25.768Z,38.50
2018-03-25T04:29:53.952Z,39.47
2018-03-25T04:32:22.123Z,38.27
2018-03-25T04:34:50.305Z,36.33
2018-03-25T04:37:18.516Z,39.53
2018-03-25T04:39:47.474Z,40.97
2018-03-25T04:42:15.643Z,39.37
2018-03-25T04:44:43.810Z,40.60
2018-03-25T04:47:11.976Z,42.13
2018-03-25T04:49:40.137Z,40.70
2018-03-25T04:52:08.308Z,42.63
2018-03-25T04:54:36.499Z,42.50
2018-03-25T04:57:04.696Z,41.30
2018-03-25T04:59:32.859Z,47.73
2018-03-25T05:02:01.047Z,38.77
2018-03-25T05:04:29.214Z,41.77
2018-03-25T05:06:58.138Z,40.00
2018-03-25T05:09:26.319Z,39.87
2018-03-25T05:11:55.258Z,40.20
2018-03-25T05:14:23.427Z,39.73
2018-03-25T05:16:51.591Z,43.97
2018-03-25T05:19:19.813Z,41.03
2018-03-25T05:21:48.015Z,42.17
2018-03-25T05:24:16.954Z,40.70
2018-03-25T05:26:45.121Z,44.87
2018-03-25T05:29:13.310Z,44.97
2018-03-25T05:31:41.484Z,40.30
2018-03-25T05:34:09.666Z,39.00
2018-03-25T05:36:37.845Z,37.30
2018-03-25T05:39:06.794Z,44.70
2018-03-25T05:41:34.999Z,37.37
2018-03-25T05:44:03.177Z,34.70
2018-03-25T05:46:31.352Z,37.60
2018-03-25T05:48:59.528Z,41.33
2018-03-25T05:51:27.690Z,40.53
2018-03-25T05:53:55.912Z,38.63
2018-03-25T05:56:24.942Z,38.27
2018-03-25T05:58:53.114Z,38.90
2018-03-25T06:01:21.326Z,38.63
2018-03-25T06:03:49.491Z,41.57
2018-03-25T06:06:17.656Z,40.17
2018-03-25T06:08:45.821Z,38.10
2018-03-25T06:11:14.024Z,34.87
2018-03-25T06:13:42.958Z,39.50
2018-03-25T06:16:11.922Z,41.33
2018-03-25T06:18:40.120Z,39.50
2018-03-25T06:21:09.065Z,42.90
2018-03-25T06:23:37.250Z,41.10
2018-03-25T06:26:05.431Z,41.83
2018-03-25T06:28:33.868Z,42.93
2018-03-25T06:31:02.034Z,39.60
2018-03-25T06:33:30.965Z,43.53
2018-03-25T06:35:59.156Z,42.83
2018-03-25T06:38:27.328Z,42.40
2018-03-25T06:40:55.486Z,43.87
2018-03-25T06:43:23.670Z,45.00
2018-03-25T06:45:51.858Z,46.43
2018-03-25T06:48:20.028Z,40.43
2018-03-25T06:50:48.203Z,44.93
2018-03-25T06:53:16.388Z,39.70
2018-03-25T06:55:44.549Z,45.50
2018-03-25T06:58:12.745Z,43.80
2018-03-25T07:00:40.931Z,43.13
2018-03-25T07:03:09.891Z,45.50
2018-03-25T07:05:38.064Z,44.90
2018-03-25T07:08:06.237Z,46.13
2018-03-25T07:10:34.431Z,41.47
2018-03-25T07:13:02.618Z,39.57
2018-03-25T07:15:31.546Z,39.83
2018-03-25T07:17:59.731Z,43.23
2018-03-25T07:20:27.889Z,44.03
2018-03-25T07:22:56.072Z,54.17
2018-03-25T07:25:24.309Z,54.17
2018-03-25T07:27:53.290Z,46.53
2018-03-25T07:30:21.465Z,43.40
2018-03-25T07:32:49.673Z,41.93
2018-03-25T07:35:17.868Z,44.27
2018-03-25T07:37:46.853Z,44.53
2018-03-25T07:40:15.797Z,44.57
2018-03-25T07:42:43.966Z,48.60
2018-03-25T07:45:12.143Z,44.33
2018-03-25T07:47:40.342Z,45.43
2018-03-25T07:50:08.580Z,50.07
2018-03-25T07:52:37.487Z,48.77
2018-03-25T07:55:05.653Z,49.43
2018-03-25T07:57:33.821Z,50.30
2018-03-25T08:00:01.984Z,46.80
2018-03-25T08:02:30.156Z,47.23
2018-03-25T08:04:58.324Z,53.00
2018-03-25T08:07:26.507Z,49.03
2018-03-25T08:09:54.683Z,54.30
2018-03-25T08:12:22.856Z,55.87
2018-03-25T08:14:51.017Z,51.43
2018-03-25T08:17:19.962Z,60.40
2018-03-25T08:19:48.150Z,47.00
2018-03-25T08:22:16.337Z,50.93
2018-03-25T08:24:44.513Z,55.50
2018-03-25T08:27:12.678Z,56.47
2018-03-25T08:29:40.848Z,51.30
2018-03-25T08:32:09.021Z,51.30
2018-03-25T08:34:37.189Z,54.80
2018-03-25T08:37:05.379Z,52.40
2018-03-25T08:39:33.557Z,52.70
2018-03-25T08:42:01.753Z,57.43
2018-03-25T08:44:30.733Z,55.50
2018-03-25T08:46:59.713Z,50.90
2018-03-25T08:49:27.882Z,54.43
2018-03-25T08:51:56.047Z,60.73
2018-03-25T08:54:24.244Z,49.00
2018-03-25T08:56:52.417Z,49.50
2018-03-25T08:59:20.645Z,52.13
2018-03-25T09:01:49.142Z,57.53
2018-03-25T09:04:18.428Z,54.30
2018-03-25T09:06:46.609Z,50.53
2018-03-25T09:09:14.786Z,52.50
2018-03-25T09:11:42.952Z,56.67
2018-03-25T09:14:11.127Z,57.67
2018-03-25T09:16:39.304Z,52.00
2018-03-25T09:19:07.510Z,55.40
2018-03-25T09:21:35.683Z,58.30
2018-03-25T09:24:03.854Z,55.23
2018-03-25T09:26:32.013Z,55.00
2018-03-25T09:29:00.956Z,63.63
2018-03-25T09:31:29.912Z,63.27
2018-03-25T09:33:58.076Z,57.33
2018-03-25T09:36:26.303Z,61.20
2018-03-25T09:38:54.450Z,60.27
2018-03-25T09:41:22.630Z,65.50
2018-03-25T09:43:51.021Z,57.87
2018-03-25T09:46:19.965Z,63.57
2018-03-25T09:48:48.172Z,61.53
2018-03-25T09:51:16.374Z,65.03
2018-03-25T09:53:44.544Z,59.57
2018-03-25T09:56:13.501Z,60.47
2018-03-25T09:58:41.711Z,62.03
2018-03-25T10:01:15.531Z,76.23
2018-03-25T10:03:43.701Z,59.87
2018-03-25T10:06:11.914Z,62.80
2018-03-25T10:08:40.094Z,63.23
2018-03-25T10:11:08.260Z,68.70
2018-03-25T10:13:36.451Z,68.17
2018-03-25T10:16:05.401Z,68.30
2018-03-25T10:18:33.582Z,65.83
2018-03-25T10:21:01.869Z,66.17
2018-03-25T10:23:30.159Z,70.27
2018-03-25T10:25:58.379Z,70.40
2018-03-25T10:28:27.302Z,75.43
2018-03-25T10:30:55.460Z,65.70
2018-03-25T10:33:24.444Z,71.00
2018-03-25T10:35:53.399Z,81.13
2018-03-25T10:38:21.574Z,76.50
2018-03-25T10:40:49.770Z,82.20
2018-03-25T10:43:17.959Z,71.87
2018-03-25T10:45:46.903Z,72.83
2018-03-25T10:48:15.096Z,78.23
2018-03-25T10:50:43.305Z,70.47
2018-03-25T10:53:11.494Z,69.80
2018-03-25T10:55:39.666Z,71.53
2018-03-25T10:58:07.839Z,68.30
2018-03-25T11:00:36.010Z,65.77
2018-03-25T11:03:04.947Z,67.30
2018-03-25T11:05:33.125Z,72.47
2018-03-25T11:08:01.296Z,66.60
2018-03-25T11:10:29.468Z,61.23
2018-03-25T11:12:57.640Z,62.50
2018-03-25T11:15:25.814Z,57.17
2018-03-25T11:17:53.987Z,57.20
2018-03-25T11:20:22.161Z,60.17
2018-03-25T11:22:50.367Z,58.27
2018-03-25T11:25:18.547Z,64.73
2018-03-25T11:27:46.723Z,69.07
2018-03-25T11:30:14.907Z,58.57
2018-03-25T11:32:43.842Z,58.20
2018-03-25T11:35:12.042Z,58.43
2018-03-25T11:37:40.209Z,68.30
2018-03-25T11:40:08.387Z,55.37
2018-03-25T11:42:36.573Z,55.53
2018-03-25T11:45:04.752Z,51.20
2018-03-25T11:47:33.006Z,58.10
2018-03-25T11:50:01.179Z,56.87
2018-03-25T11:52:29.355Z,55.83
2018-03-25T11:54:57.582Z,52.83
2018-03-25T11:57:26.538Z,55.03
2018-03-25T11:59:54.704Z,55.93
2018-03-25T12:02:22.874Z,54.40
2018-03-25T12:04:51.060Z,58.90
2018-03-25T12:07:19.449Z,57.93
2018-03-25T12:09:47.766Z,52.37
2018-03-25T12:12:16.700Z,49.87
2018-03-25T12:14:44.898Z,51.40
2018-03-25T12:17:13.117Z,52.93
2018-03-25T12:19:42.035Z,58.53
2018-03-25T12:22:10.204Z,57.17
2018-03-25T12:24:38.414Z,54.43
2018-03-25T12:27:06.598Z,52.87
2018-03-25T12:29:34.755Z,48.57
2018-03-25T12:32:02.934Z,46.40
2018-03-25T12:34:31.107Z,57.90
2018-03-25T12:36:59.276Z,61.07
2018-03-25T12:39:27.455Z,52.70
2018-03-25T12:41:55.629Z,49.27
2018-03-25T12:44:23.851Z,49.83
2018-03-25T12:46:52.026Z,49.23
2018-03-25T12:49:20.214Z,47.63
2018-03-25T12:51:48.416Z,42.67
2018-03-25T12:54:16.604Z,48.47
2018-03-25T12:56:45.544Z,44.90
2018-03-25T12:59:13.737Z,51.80
2018-03-25T13:01:41.945Z,48.77
2018-03-25T13:04:10.078Z,47.87
2018-03-25T13:06:38.279Z,46.30
2018-03-25T13:09:07.308Z,41.20
2018-03-25T13:11:35.466Z,41.57
2018-03-25T13:14:03.638Z,42.53
2018-03-25T13:16:31.804Z,40.27
2018-03-25T13:19:00.010Z,45.60
2018-03-25T13:21:28.975Z,44.30
2018-03-25T13:23:57.163Z,44.13
2018-03-25T13:26:25.354Z,43.23
2018-03-25T13:28:54.293Z,50.03
2018-03-25T13:31:22.487Z,47.77
2018-03-25T13:33:51.457Z,46.80
2018-03-25T13:36:19.635Z,51.93
2018-03-25T13:38:47.822Z,51.30
2018-03-25T13:41:16.015Z,48.40
2018-03-25T13:43:44.184Z,44.00
2018-03-25T13:46:12.359Z,47.20
2018-03-25T13:48:40.875Z,45.63
2018-03-25T13:51:09.799Z,41.67
2018-03-25T13:53:37.971Z,52.20
2018-03-25T13:56:06.138Z,44.67
2018-03-25T13:58:34.311Z,40.13
2018-03-25T14:01:02.475Z,38.23
2018-03-25T14:03:31.494Z,44.57
2018-03-25T14:06:00.431Z,45.77
2018-03-25T14:08:28.609Z,43.80
2018-03-25T14:10:56.778Z,45.20
2018-03-25T14:13:24.979Z,43.47
2018-03-25T14:15:53.927Z,38.70
2018-03-25T14:18:22.146Z,36.37
2018-03-25T14:20:51.129Z,39.90
2018-03-25T14:23:19.301Z,39.70
2018-03-25T14:25:48.251Z,38.97
2018-03-25T14:28:16.433Z,40.53
2018-03-25T14:30:44.642Z,40.93
2018-03-25T14:33:12.823Z,41.10
2018-03-25T14:35:41.784Z,45.93
2018-03-25T14:38:09.977Z,45.00
2018-03-25T14:40:38.163Z,44.03
2018-03-25T14:43:06.348Z,46.60
2018-03-25T14:45:35.287Z,44.67
2018-03-25T14:48:03.480Z,43.67
2018-03-25T14:50:31.694Z,42.63
2018-03-25T14:53:00.669Z,41.70
2018-03-25T14:55:28.845Z,49.17
2018-03-25T14:57:57.009Z,43.40
2018-03-25T15:00:25.194Z,41.10
2018-03-25T15:02:53.360Z,37.43
2018-03-25T15:05:21.547Z,48.83
2018-03-25T15:07:49.773Z,47.90
2018-03-25T15:10:18.136Z,40.17
2018-03-25T15:12:46.371Z,42.40
2018-03-25T15:15:14.557Z,42.67
2018-03-25T15:17:43.547Z,45.40
2018-03-25T15:20:12.522Z,43.13
2018-03-25T15:22:40.687Z,39.80
2018-03-25T15:25:09.669Z,46.40
2018-03-25T15:27:37.831Z,45.70
2018-03-25T15:30:06.012Z,42.37
2018-03-25T15:32:34.197Z,44.23
2018-03-25T15:35:02.368Z,44.03
2018-03-25T15:37:30.540Z,48.00
2018-03-25T15:39:59.599Z,44.27
2018-03-25T15:42:27.770Z,48.83
2018-03-25T15:44:56.005Z,41.73
2018-03-25T15:47:24.188Z,41.77
2018-03-25T15:49:52.383Z,42.40
2018-03-25T15:52:21.422Z,43.83
2018-03-25T15:54:49.599Z,48.00
2018-03-25T15:57:17.779Z,48.73
2018-03-25T15:59:45.950Z,42.37
2018-03-25T16:02:14.165Z,40.17
2018-03-25T16:04:42.341Z,43.90
2018-03-25T16:07:10.521Z,47.30
2018-03-25T16:09:39.497Z,44.63
2018-03-25T16:12:07.689Z,43.87
2018-03-25T16:14:36.626Z,39.43
2018-03-25T16:17:04.802Z,41.57
2018-03-25T16:19:33.018Z,45.07
2018-03-25T16:22:01.220Z,42.83
2018-03-25T16:24:30.168Z,41.43
2018-03-25T16:26:58.354Z,43.10
2018-03-25T16:29:27.556Z,45.43
2018-03-25T16:31:55.784Z,38.13
2018-03-25T16:34:23.945Z,44.97
2018-03-25T16:36:52.112Z,45.77
2018-03-25T16:39:21.046Z,46.80
2018-03-25T16:41:49.217Z,42.73
2018-03-25T16:44:17.411Z,46.13
2018-03-25T16:46:45.582Z,43.00
2018-03-25T16:49:13.820Z,43.67
2018-03-25T16:51:41.993Z,43.67
2018-03-25T16:54:10.167Z,40.10
2018-03-25T16:56:38.348Z,42.63
2018-03-25T16:59:06.531Z,44.83
2018-03-25T17:01:34.703Z,50.87
2018-03-25T17:04:02.890Z,47.17
2018-03-25T17:06:31.069Z,50.77
2018-03-25T17:08:59.249Z,48.97
2018-03-25T17:11:27.441Z,43.53
2018-03-25T17:13:55.622Z,40.50
2018-03-25T17:16:23.807Z,47.13
2018-03-25T17:18:52.762Z,46.10
2018-03-25T17:21:20.936Z,45.20
2018-03-25T17:23:49.122Z,41.63
2018-03-25T17:26:17.312Z,42.53
2018-03-25T17:28:45.503Z,41.30
2018-03-25T17:31:14.447Z,45.20
2018-03-25T17:33:42.616Z,47.00
2018-03-25T17:36:10.776Z,43.87
2018-03-25T17:38:38.937Z,41.73
2018-03-25T17:41:07.102Z,51.00
2018-03-25T17:43:36.055Z,45.00
2018-03-25T17:46:04.299Z,40.87
2018-03-25T17:48:32.475Z,44.57
2018-03-25T17:51:00.659Z,44.87
2018-03-25T17:53:28.910Z,44.87
2018-03-25T17:55:57.127Z,41.53
2018-03-25T17:58:25.305Z,38.87
2018-03-25T18:00:53.509Z,39.87
2018-03-25T18:03:22.458Z,39.60
2018-03-25T18:05:50.679Z,45.70
2018-03-25T18:08:19.643Z,44.90
2018-03-25T18:10:47.816Z,41.10
2018-03-25T18:13:15.990Z,50.77
2018-03-25T18:15:44.174Z,45.23
2018-03-25T18:18:12.366Z,46.93
2018-03-25T18:20:40.646Z,39.10
2018-03-25T18:23:09.599Z,45.70
2018-03-25T18:25:37.865Z,45.20
2018-03-25T18:28:06.058Z,42.23
2018-03-25T18:30:34.994Z,42.17
2018-03-25T18:33:03.925Z,42.27
2018-03-25T18:35:32.108Z,49.50
2018-03-25T18:38:00.296Z,47.57
2018-03-25T18:40:28.505Z,40.20
2018-03-25T18:42:57.456Z,44.93
2018-03-25T18:45:25.627Z,40.73
2018-03-25T18:47:54.619Z,44.83
2018-03-25T18:50:25.234Z,43.70
2018-03-25T18:52:54.037Z,42.83
2018-03-25T18:55:23.861Z,42.80
2018-03-25T18:57:52.060Z,45.23
2018-03-25T19:00:20.306Z,40.87
2018-03-25T19:02:51.008Z,49.10
2018-03-25T19:05:19.230Z,42.07
2018-03-25T19:07:47.426Z,40.90
2018-03-25T19:10:15.619Z,47.17
2018-03-25T19:12:44.555Z,42.47
2018-03-25T19:15:12.735Z,41.77
2018-03-25T19:17:41.735Z,44.07
2018-03-25T19:20:12.404Z,44.57
2018-03-25T19:22:43.016Z,42.43
2018-03-25T19:25:15.001Z,43.47
2018-03-25T19:27:43.131Z,41.23
2018-03-25T19:30:14.159Z,41.00
2018-03-25T19:32:43.363Z,44.43
2018-03-25T19:35:11.673Z,40.80
2018-03-25T19:37:40.621Z,38.60
2018-03-25T19:40:08.851Z,41.67
2018-03-25T19:42:37.784Z,44.57
2018-03-25T19:45:06.078Z,36.97
2018-03-25T19:47:37.916Z,44.30
2018-03-25T19:50:07.694Z,44.13
2018-03-25T19:52:37.076Z,42.30
2018-03-25T19:55:05.277Z,40.97
2018-03-25T19:57:34.208Z,38.17
2018-03-25T20:00:02.386Z,42.73
2018-03-25T20:02:31.107Z,38.90
2018-03-25T20:04:59.270Z,41.53
2018-03-25T20:07:27.523Z,43.40
2018-03-25T20:09:55.785Z,44.30
2018-03-25T20:12:23.975Z,38.73
2018-03-25T20:14:52.204Z,46.53
2018-03-25T20:17:21.154Z,41.20
2018-03-25T20:19:49.319Z,40.00
2018-03-25T20:22:17.533Z,38.90
2018-03-25T20:24:45.686Z,41.13
2018-03-25T20:27:13.871Z,42.77
2018-03-25T20:29:42.059Z,46.43
2018-03-25T20:32:10.339Z,42.30
2018-03-25T20:34:38.526Z,43.07
2018-03-25T20:37:07.470Z,43.93
2018-03-25T20:39:35.649Z,41.63
2018-03-25T20:42:03.830Z,42.23
2018-03-25T20:44:32.025Z,42.67
2018-03-25T20:47:00.250Z,40.13
2018-03-25T20:49:28.651Z,39.90
2018-03-25T20:51:56.861Z,38.40
2018-03-25T20:54:25.813Z,39.27
2018-03-25T20:56:53.989Z,42.80
2018-03-25T20:59:22.180Z,42.30
2018-03-25T21:01:50.384Z,38.77
2018-03-25T21:04:19.336Z,44.90
2018-03-25T21:06:47.515Z,44.10
2018-03-25T21:09:15.725Z,45.60
2018-03-25T21:11:43.907Z,44.53
2018-03-25T21:14:12.845Z,44.83
2018-03-25T21:16:41.023Z,43.67
2018-03-25T21:19:09.223Z,43.40
2018-03-25T21:21:37.406Z,42.70
2018-03-25T21:24:05.591Z,44.37
2018-03-25T21:26:33.771Z,39.40
2018-03-25T21:29:02.720Z,41.93
2018-03-25T21:31:30.903Z,42.33
2018-03-25T21:33:59.077Z,40.93
2018-03-25T21:36:27.246Z,43.87
2018-03-25T21:38:55.437Z,42.77
2018-03-25T21:41:23.642Z,40.80
2018-03-25T21:43:52.607Z,40.93
2018-03-25T21:46:20.807Z,39.23
2018-03-25T21:48:49.750Z,45.37
2018-03-25T21:51:17.938Z,39.43
2018-03-25T21:53:46.197Z,39.07
2018-03-25T21:56:15.098Z,42.17
2018-03-25T21:58:43.272Z,40.70
2018-03-25T22:01:11.463Z,41.93
2018-03-25T22:03:39.638Z,45.37
2018-03-25T22:06:08.298Z,43.13
2018-03-25T22:08:36.460Z,41.80
2018-03-25T22:11:04.627Z,37.17
2018-03-25T22:13:32.818Z,39.87
2018-03-25T22:16:00.995Z,43.87
2018-03-25T22:18:34.171Z,36.13
2018-03-25T22:21:02.342Z,42.77
2018-03-25T22:23:30.515Z,43.40
2018-03-25T22:25:58.704Z,43.93
2018-03-25T22:28:26.886Z,42.07
2018-03-25T22:30:55.075Z,46.30
2018-03-25T22:33:23.256Z,45.60
2018-03-25T22:35:51.455Z,43.90
2018-03-25T22:38:19.630Z,45.57
2018-03-25T22:40:48.591Z,46.27
2018-03-25T22:43:16.768Z,46.70
2018-03-25T22:45:44.970Z,45.23
2018-03-25T22:48:13.177Z,46.70
2018-03-25T22:50:41.358Z,48.23
2018-03-25T22:53:09.563Z,42.57
2018-03-25T22:55:37.740Z,42.93
2018-03-25T22:58:05.913Z,44.87
2018-03-25T23:00:34.091Z,45.60
2018-03-25T23:03:08.712Z,47.33
2018-03-25T23:05:36.933Z,39.70
2018-03-25T23:08:05.877Z,44.00
2018-03-25T23:10:34.070Z,43.53
2018-03-25T23:13:02.276Z,39.53
2018-03-25T23:15:31.218Z,42.00
2018-03-25T23:17:59.403Z,42.27
2018-03-25T23:20:28.346Z,47.43
2018-03-25T23:22:57.295Z,48.47
2018-03-25T23:25:25.510Z,46.50
2018-03-25T23:27:53.682Z,43.73
2018-03-25T23:30:22.614Z,45.93
2018-03-25T23:32:50.786Z,43.60
2018-03-25T23:35:18.981Z,49.07
2018-03-25T23:37:47.157Z,43.47
2018-03-25T23:40:15.322Z,44.10
2018-03-25T23:42:43.499Z,45.50
2018-03-25T23:45:11.677Z,43.10
2018-03-25T23:47:39.852Z,46.40
2018-03-25T23:50:08.024Z,44.63
2018-03-25T23:52:36.194Z,44.70
2018-03-25T23:55:04.373Z,44.23
2018-03-25T23:57:32.553Z,47.03
